Lewiston, California
Current Conditions -  °F | °C
As of 12:15 PM on Saturday 25 Oct 2014 (Local Time) from KO54 Reporting Station
Scattered Clouds Scattered Clouds  
Wind Chill: 12°   Ceiling: Unl
Heat Index: 12°   Visibility: 3mi
Dew Point: 10°   Wind: 6mph
Humidity: 88%   Direction: 230°SW
Pressure: 29.87"   Gusts: NA
Location:  40.71°N, 122.81°W
Report Text: KO54 251915Z AUTO 23005KT 3SM FEW025 SCT036 SCT044 12/10 A2987 RMK AO1 P0005
Loading
Personal Weather Stations






























Interactive Weather Map
Tropical Storm Tracking
New forecast layout! Learn more

10-Day Weather Forecast

Advertisements
Track Severe Weather on mobile